메인 페이지
METAR-TAF:

METAR-TAF

공항 :

라바트, 모로코

위도: 34-03N, 경도: 006-46W, 고도: 84m

현재 날씨관측

예보는 26분 전, 19:00시(UTC)에 발표되었습니다.
북북서5kt북서풍과 북북동풍을 오가는
온도 24°C
습도 83%
기압 1016 hPa
시정: 5000m
고도 600ft 상공 구름 조금
고도 800ft 상공 구름 많음

METAR: GMME 201900Z 34005KT 310V030 5000 FEW006 BKN008 24/21 Q1016 BECMG 3000 BR SCT005 BKN008

시각: 20:26 (19:26 UTC)

예보

예보는 2 시간 26분 전, 17:00시(UTC)에 발표되었습니다.
예보 대상 시간: 20일 18시부터 21일 24시까지 (UTC)
북서10kt
시정: 6000m
고도 1000ft 상공 구름 조금
고도 20000ft 상공 구름 많음
확률 30% :
일시적
20일 20시부터 20일 24시까지 (UTC)
4kt
시정: 3000m
고도 800ft 상공 구름 보통
고도 1500ft 상공 구름 보통
박무
확률 40% :
일시적
21일 00시부터 21일 07시까지 (UTC)
kt
시정: 0300m
고도 300ft 상공 구름 많음
안개
전환 중
21일 08시부터 21일 12시까지 (UTC)
여러 방향의 바람 2kt
시정: 3000m
고도 1000ft 상공 구름 보통
박무
일시적
21일 12시부터 21일 18시까지 (UTC)
8kt

TAF: GMME 201700Z 2018/2124 32010KT 6000 FEW010 BKN200 PROB30 TEMPO 2020/2024 26004KT 3000 BR SCT008 SCT015 PROB40 TEMPO 2100/2107 00000KT 0300 FG BKN003 BECMG 2108/2112 VRB02KT 3000 BR SCT010 TEMPO 2112/2118 36008KT

4,000개 이상의 공항 관측 자료 및 예보 (METAR 및 TAF 보고).

지도상에서 검색 가능한 기상관측소가 노란 점과 빨간 점으로 표시되어 있습니다.

기상관측소 명을 보려면 표시 위로 마우스를 이동하세요.

날씨 관측과 예보를 보려면 클릭하세요.

지도 변경 : 확대하려면 엑스 표시가 있는 녹색 버튼, 축소하려면 빼기 표시가 있는 녹색 버튼, 다음 페이지의 지도를 보려면 녹색 화살표를 클릭하세요.


METAR-TAF: